createdAt,value
2023-02-28T00:00:41.883Z,43.22
2023-02-28T00:03:27.305Z,43.26
2023-02-28T00:06:12.362Z,43.14
2023-02-28T00:08:57.760Z,43.26
2023-02-28T00:11:43.005Z,42.90
2023-02-28T00:14:28.350Z,43.13
2023-02-28T00:17:13.679Z,42.91
2023-02-28T00:20:10.916Z,43.08
2023-02-28T00:22:56.662Z,42.98
2023-02-28T00:25:41.837Z,42.95
2023-02-28T00:28:27.389Z,42.96
2023-02-28T00:31:12.889Z,43.02
2023-02-28T00:33:58.121Z,42.84
2023-02-28T00:36:46.445Z,42.93
2023-02-28T00:39:31.631Z,42.98
2023-02-28T00:42:16.928Z,42.94
2023-02-28T00:45:04.666Z,42.95
2023-02-28T00:47:50.849Z,43.06
2023-02-28T00:50:37.086Z,42.99
2023-02-28T00:53:23.043Z,43.04
2023-02-28T00:56:08.543Z,43.09
2023-02-28T00:58:53.848Z,43.09
2023-02-28T01:01:40.048Z,43.13
2023-02-28T01:04:25.807Z,43.16
2023-02-28T01:07:11.407Z,43.13
2023-02-28T01:09:56.539Z,43.06
2023-02-28T01:12:43.932Z,43.02
2023-02-28T01:15:29.461Z,43.07
2023-02-28T01:18:14.734Z,43.06
2023-02-28T01:21:05.126Z,43.23
2023-02-28T01:23:50.879Z,43.13
2023-02-28T01:26:36.676Z,43.14
2023-02-28T01:29:21.908Z,43.12
2023-02-28T01:32:07.055Z,43.12
2023-02-28T01:34:54.436Z,43.14
2023-02-28T01:37:39.804Z,43.05
2023-02-28T01:40:25.087Z,43.00
2023-02-28T01:43:22.197Z,42.87
2023-02-28T01:46:07.349Z,42.91
2023-02-28T01:49:03.968Z,42.86
2023-02-28T01:51:54.072Z,42.97
2023-02-28T01:54:39.602Z,42.99
2023-02-28T01:57:30.942Z,42.95
2023-02-28T02:00:19.573Z,42.88
2023-02-28T02:03:11.767Z,43.04
2023-02-28T02:05:57.040Z,43.00
2023-02-28T02:08:42.367Z,43.03
2023-02-28T02:11:30.748Z,43.09
2023-02-28T02:14:32.085Z,43.13
2023-02-28T02:17:37.570Z,43.01
2023-02-28T02:20:54.148Z,43.08
2023-02-28T02:24:01.578Z,43.12
2023-02-28T02:27:16.466Z,43.03
2023-02-28T02:30:25.735Z,43.01
2023-02-28T02:33:56.986Z,43.07
2023-02-28T02:37:09.786Z,42.98
2023-02-28T02:40:14.414Z,43.08
2023-02-28T02:43:14.556Z,43.01
2023-02-28T02:46:11.147Z,43.14
2023-02-28T02:49:00.277Z,43.00
2023-02-28T02:51:48.646Z,42.96
2023-02-28T02:54:41.616Z,42.88
2023-02-28T02:57:53.027Z,42.99
2023-02-28T03:00:54.132Z,43.00
2023-02-28T03:03:39.919Z,43.04
2023-02-28T03:06:26.932Z,42.75
2023-02-28T03:09:12.737Z,42.87
2023-02-28T03:11:58.285Z,43.03
2023-02-28T03:15:20.863Z,43.07
2023-02-28T03:18:37.064Z,43.00
2023-02-28T03:21:31.848Z,43.12
2023-02-28T03:24:24.322Z,43.21
2023-02-28T03:27:22.321Z,43.12
2023-02-28T03:30:17.680Z,42.95
2023-02-28T03:33:15.121Z,43.00
2023-02-28T03:36:13.439Z,42.91
2023-02-28T03:39:03.690Z,42.75
2023-02-28T03:41:55.845Z,42.59
2023-02-28T03:44:49.883Z,42.53
2023-02-28T03:47:44.987Z,42.61
2023-02-28T03:50:42.295Z,42.69
2023-02-28T03:53:33.482Z,42.70
2023-02-28T03:56:41.780Z,42.50
2023-02-28T03:59:31.509Z,42.43
2023-02-28T04:02:17.098Z,42.70
2023-02-28T04:05:02.563Z,42.58
2023-02-28T04:07:49.219Z,42.38
2023-02-28T04:10:35.016Z,42.50
2023-02-28T04:13:20.226Z,42.55
2023-02-28T04:16:18.648Z,42.50
2023-02-28T04:19:08.867Z,42.44
2023-02-28T04:21:55.140Z,42.36
2023-02-28T04:24:42.457Z,42.34
2023-02-28T04:27:27.782Z,42.31
2023-02-28T04:30:13.413Z,42.26
2023-02-28T04:32:59.724Z,42.17
2023-02-28T04:35:45.311Z,42.18
2023-02-28T04:38:33.788Z,42.10
2023-02-28T04:41:19.709Z,42.11
2023-02-28T04:44:05.074Z,42.02
2023-02-28T04:46:51.311Z,41.98
2023-02-28T04:49:36.605Z,41.97
2023-02-28T04:52:21.883Z,42.15
2023-02-28T04:55:07.601Z,42.74
2023-02-28T04:57:52.844Z,44.28
2023-02-28T05:00:38.115Z,44.75
2023-02-28T05:03:23.726Z,44.93
2023-02-28T05:06:10.335Z,44.76
2023-02-28T05:08:55.933Z,44.71
2023-02-28T05:11:41.902Z,44.52
2023-02-28T05:14:27.157Z,44.68
2023-02-28T05:17:12.391Z,44.18
2023-02-28T05:20:09.718Z,44.43
2023-02-28T05:23:01.372Z,44.73
2023-02-28T05:25:46.872Z,44.49
2023-02-28T05:28:32.472Z,44.72
2023-02-28T05:31:18.128Z,44.46
2023-02-28T05:34:05.228Z,44.62
2023-02-28T05:36:50.340Z,45.06
2023-02-28T05:39:36.183Z,44.66
2023-02-28T05:42:21.777Z,44.51
2023-02-28T05:45:08.158Z,44.31
2023-02-28T05:47:57.133Z,44.00
2023-02-28T05:50:43.792Z,44.91
2023-02-28T05:53:30.151Z,43.96
2023-02-28T05:56:15.834Z,43.95
2023-02-28T05:59:01.341Z,43.56
2023-02-28T06:01:49.217Z,43.27
2023-02-28T06:04:35.008Z,43.14
2023-02-28T06:07:20.201Z,42.83
2023-02-28T06:10:06.189Z,42.77
2023-02-28T06:12:51.504Z,42.59
2023-02-28T06:15:37.002Z,42.55
2023-02-28T06:18:22.398Z,42.23
2023-02-28T06:21:07.694Z,42.03
2023-02-28T06:23:52.984Z,41.87
2023-02-28T06:26:38.061Z,41.86
2023-02-28T06:29:23.382Z,41.92
2023-02-28T06:32:08.632Z,41.67
2023-02-28T06:34:54.237Z,41.41
2023-02-28T06:37:41.716Z,41.52
2023-02-28T06:40:27.610Z,41.34
2023-02-28T06:43:14.452Z,41.35
2023-02-28T06:46:02.851Z,41.40
2023-02-28T06:48:48.313Z,41.15
2023-02-28T06:51:33.597Z,41.41
2023-02-28T06:54:18.899Z,41.21
2023-02-28T06:57:04.204Z,41.32
2023-02-28T06:59:50.402Z,41.24
2023-02-28T07:02:37.161Z,41.28
2023-02-28T07:05:22.725Z,41.19
2023-02-28T07:08:08.439Z,41.08
2023-02-28T07:10:55.033Z,40.93
2023-02-28T07:13:40.584Z,40.85
2023-02-28T07:16:26.689Z,40.79
2023-02-28T07:19:12.098Z,40.72
2023-02-28T07:21:57.361Z,40.69
2023-02-28T07:24:42.746Z,40.53
2023-02-28T07:27:28.065Z,40.65
2023-02-28T07:30:13.717Z,40.62
2023-02-28T07:32:59.131Z,40.51
2023-02-28T07:35:45.321Z,40.50
2023-02-28T07:38:30.712Z,40.52
2023-02-28T07:41:17.900Z,40.35
2023-02-28T07:44:04.215Z,40.31
2023-02-28T07:46:49.745Z,40.67
2023-02-28T07:49:38.851Z,40.56
2023-02-28T07:52:25.269Z,40.47
2023-02-28T07:55:11.628Z,40.38
2023-02-28T07:57:58.588Z,40.51
2023-02-28T08:00:43.689Z,40.48
2023-02-28T08:03:28.942Z,40.43
2023-02-28T08:06:23.833Z,40.41
2023-02-28T08:09:09.200Z,40.48
2023-02-28T08:11:54.537Z,40.24
2023-02-28T08:14:40.756Z,40.27
2023-02-28T08:17:26.013Z,40.14
2023-02-28T08:20:11.839Z,40.05
2023-02-28T08:22:57.149Z,40.14
2023-02-28T08:25:42.381Z,40.03
2023-02-28T08:28:27.812Z,39.99
2023-02-28T08:39:16.231Z,39.89
2023-02-28T08:42:08.276Z,39.95
2023-02-28T08:44:53.367Z,39.83
2023-02-28T08:47:38.310Z,39.96
2023-02-28T08:50:22.669Z,40.14
2023-02-28T08:53:07.207Z,39.83
2023-02-28T08:55:59.856Z,40.14
2023-02-28T09:06:46.442Z,40.08
2023-02-28T09:09:31.158Z,40.12
2023-02-28T09:12:15.421Z,39.99
2023-02-28T09:15:00.077Z,40.07
2023-02-28T09:17:47.016Z,39.92
2023-02-28T09:20:32.595Z,39.78
2023-02-28T09:23:17.424Z,39.71
2023-02-28T09:34:04.851Z,39.50
2023-02-28T09:36:51.544Z,39.47
2023-02-28T09:39:36.521Z,39.56
2023-02-28T09:42:28.192Z,39.66
2023-02-28T09:45:33.649Z,39.58
2023-02-28T09:48:25.325Z,39.65
2023-02-28T09:51:41.056Z,39.62
2023-02-28T09:54:30.821Z,39.78
2023-02-28T09:57:30.613Z,39.80
2023-02-28T10:00:37.406Z,39.85
2023-02-28T10:03:25.654Z,39.76
2023-02-28T10:06:34.539Z,39.81
2023-02-28T10:09:32.885Z,39.75
2023-02-28T10:12:18.627Z,39.65
2023-02-28T10:15:05.322Z,39.56
2023-02-28T10:18:08.803Z,39.44
2023-02-28T10:20:56.880Z,39.36
2023-02-28T10:23:42.913Z,39.25
2023-02-28T10:26:32.185Z,39.51
2023-02-28T10:29:17.901Z,39.31
2023-02-28T10:32:05.134Z,39.43
2023-02-28T10:34:58.514Z,39.38
2023-02-28T10:37:47.423Z,39.39
2023-02-28T10:40:39.364Z,39.23
2023-02-28T10:43:25.630Z,39.19
2023-02-28T10:46:10.975Z,39.19
2023-02-28T10:49:13.820Z,39.16
2023-02-28T10:52:01.120Z,39.24
2023-02-28T10:54:46.396Z,39.31
2023-02-28T10:57:31.789Z,39.36
2023-02-28T11:00:26.263Z,39.51
2023-02-28T11:03:26.003Z,39.33
2023-02-28T11:06:19.650Z,39.34
2023-02-28T11:09:19.049Z,39.48
2023-02-28T11:12:07.419Z,39.43
2023-02-28T11:14:59.178Z,39.49
2023-02-28T11:17:45.044Z,39.48
2023-02-28T11:20:33.685Z,39.40
2023-02-28T11:23:21.130Z,39.40
2023-02-28T11:26:10.537Z,39.47
2023-02-28T11:29:12.338Z,39.12
2023-02-28T11:32:14.715Z,39.20
2023-02-28T11:35:11.471Z,39.07
2023-02-28T11:37:58.286Z,39.05
2023-02-28T11:40:46.932Z,39.16
2023-02-28T11:44:05.104Z,39.17
2023-02-28T11:46:55.544Z,39.24
2023-02-28T11:49:43.655Z,39.17
2023-02-28T11:52:49.379Z,39.36
2023-02-28T11:55:39.865Z,39.41
2023-02-28T11:58:52.850Z,39.45
2023-02-28T12:02:07.155Z,39.38
2023-02-28T12:05:19.279Z,39.25
2023-02-28T12:08:23.549Z,39.30
2023-02-28T12:11:28.149Z,39.47
2023-02-28T12:14:37.857Z,39.68
2023-02-28T12:17:26.269Z,39.93
2023-02-28T12:20:33.561Z,40.06
2023-02-28T12:23:40.493Z,40.12
2023-02-28T12:26:41.099Z,40.37
2023-02-28T12:29:50.403Z,40.46
2023-02-28T12:32:52.566Z,40.56
2023-02-28T12:35:45.073Z,40.58
2023-02-28T12:38:39.370Z,41.12
2023-02-28T12:42:08.836Z,41.67
2023-02-28T12:45:00.006Z,42.54
2023-02-28T12:47:49.667Z,43.67
2023-02-28T12:50:37.141Z,44.44
2023-02-28T12:53:43.610Z,44.69
2023-02-28T12:56:35.324Z,45.15
2023-02-28T12:59:41.200Z,45.16
2023-02-28T13:02:41.781Z,44.89
2023-02-28T13:05:51.815Z,44.74
2023-02-28T13:09:16.615Z,44.89
2023-02-28T13:12:02.150Z,44.39
2023-02-28T13:14:49.546Z,44.23
2023-02-28T13:17:35.386Z,44.12
2023-02-28T13:20:36.021Z,43.84
2023-02-28T13:23:56.961Z,43.67
2023-02-28T13:26:42.735Z,43.32
2023-02-28T13:29:43.085Z,43.08
2023-02-28T13:32:34.464Z,42.89
2023-02-28T13:35:37.243Z,42.83
2023-02-28T13:38:26.145Z,42.59
2023-02-28T13:41:44.678Z,42.51
2023-02-28T13:44:30.242Z,42.39
2023-02-28T13:47:25.736Z,42.25
2023-02-28T13:50:40.159Z,42.15
2023-02-28T13:53:59.127Z,41.80
2023-02-28T13:57:05.781Z,41.69
2023-02-28T14:00:06.514Z,41.49
2023-02-28T14:03:35.030Z,41.49
2023-02-28T14:06:38.220Z,41.59
2023-02-28T14:09:26.695Z,41.62
2023-02-28T14:12:49.707Z,41.82
2023-02-28T14:15:35.315Z,41.92
2023-02-28T14:18:27.287Z,41.87
2023-02-28T14:21:27.353Z,42.35
2023-02-28T14:24:40.507Z,42.90
2023-02-28T14:27:44.829Z,43.25
2023-02-28T14:30:52.771Z,43.35
2023-02-28T14:34:02.878Z,43.64
2023-02-28T14:36:52.630Z,43.60
2023-02-28T14:39:42.916Z,43.56
2023-02-28T14:42:29.157Z,43.74
2023-02-28T14:45:22.557Z,43.67
2023-02-28T14:48:10.999Z,43.68
2023-02-28T14:50:59.642Z,43.81
2023-02-28T14:57:30.775Z,43.63
2023-02-28T15:03:24.466Z,43.68
2023-02-28T15:06:18.495Z,43.68
2023-02-28T15:09:19.765Z,43.66
2023-02-28T15:12:05.408Z,43.76
2023-02-28T15:14:52.290Z,43.61
2023-02-28T15:17:37.870Z,43.47
2023-02-28T15:20:25.441Z,43.42
2023-02-28T15:23:14.989Z,43.35
2023-02-28T15:26:01.192Z,43.35
2023-02-28T15:28:46.873Z,42.32
2023-02-28T15:31:56.503Z,42.53
2023-02-28T15:34:45.097Z,42.49
2023-02-28T15:37:34.966Z,42.61
2023-02-28T15:40:27.732Z,42.68
2023-02-28T15:43:23.882Z,42.69
2023-02-28T15:46:13.355Z,42.78
2023-02-28T15:48:58.776Z,42.75
2023-02-28T15:51:44.388Z,42.99
2023-02-28T15:54:38.581Z,42.86
2023-02-28T15:57:27.460Z,42.78
2023-02-28T16:00:17.288Z,42.81
2023-02-28T16:03:26.786Z,42.88
2023-02-28T16:06:27.635Z,42.85
2023-02-28T16:09:17.474Z,42.73
2023-02-28T16:12:04.301Z,42.88
2023-02-28T16:14:53.542Z,42.77
2023-02-28T16:17:40.319Z,42.83
2023-02-28T16:20:30.645Z,42.78
2023-02-28T16:23:16.106Z,43.07
2023-02-28T16:26:04.159Z,43.39
2023-02-28T16:28:50.327Z,43.41
2023-02-28T16:31:38.862Z,43.33
2023-02-28T16:34:24.567Z,43.17
2023-02-28T16:37:15.181Z,43.29
2023-02-28T16:40:00.538Z,43.33
2023-02-28T16:42:47.762Z,43.33
2023-02-28T16:45:33.095Z,43.55
2023-02-28T16:48:18.397Z,43.64
2023-02-28T16:51:05.363Z,43.47
2023-02-28T16:53:50.623Z,43.50
2023-02-28T16:56:36.224Z,43.48
2023-02-28T16:59:27.229Z,43.54
2023-02-28T17:02:15.495Z,43.57
2023-02-28T17:05:01.138Z,43.25
2023-02-28T17:07:47.157Z,43.33
2023-02-28T17:10:32.693Z,43.16
2023-02-28T17:13:17.980Z,43.26
2023-02-28T17:16:03.783Z,43.38
2023-02-28T17:18:49.469Z,43.20
2023-02-28T17:21:35.182Z,43.13
2023-02-28T17:24:30.267Z,43.05
2023-02-28T17:27:16.673Z,42.98
2023-02-28T17:30:02.003Z,42.69
2023-02-28T17:32:47.870Z,43.52
2023-02-28T17:35:33.654Z,44.12
2023-02-28T17:38:20.543Z,44.44
2023-02-28T17:41:06.273Z,44.50
2023-02-28T17:43:51.942Z,44.40
2023-02-28T17:46:38.151Z,44.64
2023-02-28T17:49:24.009Z,44.72
2023-02-28T17:52:09.833Z,44.33
2023-02-28T17:54:59.220Z,44.39
2023-02-28T17:57:44.780Z,43.96
2023-02-28T18:00:30.432Z,44.00
2023-02-28T18:03:15.743Z,43.88
2023-02-28T18:06:02.352Z,44.23
2023-02-28T18:08:48.421Z,44.38
2023-02-28T18:11:44.478Z,44.71
2023-02-28T18:14:29.812Z,44.94
2023-02-28T18:17:15.470Z,44.35
2023-02-28T18:20:00.967Z,45.17
2023-02-28T18:22:47.617Z,45.90
2023-02-28T18:25:33.230Z,46.09
2023-02-28T18:28:18.756Z,45.53
2023-02-28T18:31:12.931Z,44.96
2023-02-28T18:33:59.928Z,44.09
2023-02-28T18:36:47.249Z,43.44
2023-02-28T18:39:32.502Z,43.07
2023-02-28T18:42:17.960Z,42.90
2023-02-28T18:45:03.978Z,42.54
2023-02-28T18:47:50.139Z,42.39
2023-02-28T18:50:38.269Z,42.21
2023-02-28T18:53:24.656Z,42.10
2023-02-28T18:56:13.624Z,41.84
2023-02-28T18:58:59.199Z,41.63
2023-02-28T19:01:46.688Z,41.44
2023-02-28T19:04:32.074Z,41.13
2023-02-28T19:07:17.829Z,41.07
2023-02-28T19:10:03.822Z,40.62
2023-02-28T19:12:49.598Z,40.59
2023-02-28T19:15:35.202Z,40.69
2023-02-28T19:18:20.607Z,40.78
2023-02-28T19:21:10.940Z,40.70
2023-02-28T19:23:56.771Z,40.74
2023-02-28T19:26:42.206Z,40.82
2023-02-28T19:29:30.325Z,40.67
2023-02-28T19:32:17.218Z,40.92
2023-02-28T19:35:04.712Z,40.98
2023-02-28T19:37:53.658Z,40.82
2023-02-28T19:40:42.390Z,40.90
2023-02-28T19:43:28.425Z,41.01
2023-02-28T19:46:15.010Z,41.01
2023-02-28T19:49:03.812Z,40.76
2023-02-28T19:51:51.004Z,40.80
2023-02-28T19:54:36.781Z,40.93
2023-02-28T19:57:22.788Z,41.10
2023-02-28T20:00:10.574Z,40.80
2023-02-28T20:02:59.506Z,40.87
2023-02-28T20:05:45.669Z,40.80
2023-02-28T20:08:31.504Z,40.83
2023-02-28T20:11:22.108Z,40.78
2023-02-28T20:14:17.750Z,40.68
2023-02-28T20:17:03.622Z,40.53
2023-02-28T20:19:49.773Z,40.66
2023-02-28T20:22:38.236Z,40.66
2023-02-28T20:25:24.069Z,40.57
2023-02-28T20:28:09.641Z,40.60
2023-02-28T20:30:55.812Z,40.69
2023-02-28T20:33:45.537Z,40.49
2023-02-28T20:36:32.673Z,40.50
2023-02-28T20:39:18.222Z,40.59
2023-02-28T20:42:04.040Z,40.58
2023-02-28T20:44:49.336Z,40.63
2023-02-28T20:47:34.678Z,40.60
2023-02-28T20:50:20.259Z,40.56
2023-02-28T20:53:05.676Z,41.59
2023-02-28T20:55:59.420Z,41.76
2023-02-28T20:58:48.045Z,42.06
2023-02-28T21:01:33.513Z,42.24
2023-02-28T21:04:18.704Z,42.31
2023-02-28T21:07:04.656Z,42.22
2023-02-28T21:09:49.897Z,42.31
2023-02-28T21:12:35.293Z,42.24
2023-02-28T21:15:21.507Z,43.86
2023-02-28T21:18:06.963Z,42.35
2023-02-28T21:20:52.214Z,42.13
2023-02-28T21:23:37.847Z,42.20
2023-02-28T21:26:24.313Z,42.96
2023-02-28T21:29:09.695Z,42.30
2023-02-28T21:31:55.086Z,42.00
2023-02-28T21:34:41.554Z,42.00
2023-02-28T21:37:27.440Z,42.13
2023-02-28T21:40:13.402Z,41.73
2023-02-28T21:42:59.020Z,41.64
2023-02-28T21:45:44.235Z,41.57
2023-02-28T21:48:30.464Z,41.44
2023-02-28T21:51:22.412Z,41.30
2023-02-28T21:54:08.577Z,41.31
2023-02-28T21:56:55.635Z,40.99
2023-02-28T21:59:44.089Z,41.12
2023-02-28T22:02:30.887Z,41.01
2023-02-28T22:05:16.124Z,41.05
2023-02-28T22:08:01.614Z,40.91
2023-02-28T22:10:46.952Z,41.09
2023-02-28T22:13:36.308Z,40.96
2023-02-28T22:16:22.683Z,40.98
2023-02-28T22:19:08.299Z,41.06
2023-02-28T22:21:53.990Z,40.98
2023-02-28T22:24:39.913Z,40.96
2023-02-28T22:27:25.111Z,40.96
2023-02-28T22:30:10.906Z,41.04
2023-02-28T22:32:56.210Z,40.91
2023-02-28T22:35:41.733Z,40.93
2023-02-28T22:38:27.392Z,40.77
2023-02-28T22:41:13.051Z,41.05
2023-02-28T22:44:01.343Z,41.25
2023-02-28T22:46:46.870Z,41.02
2023-02-28T22:49:32.215Z,40.93
2023-02-28T22:52:17.539Z,40.80
2023-02-28T22:55:02.870Z,40.89
2023-02-28T22:57:48.161Z,40.88
2023-02-28T23:00:33.692Z,40.98
2023-02-28T23:03:18.958Z,40.99
2023-02-28T23:06:18.606Z,40.94
2023-02-28T23:09:06.638Z,40.69
2023-02-28T23:11:52.304Z,40.97
2023-02-28T23:14:37.974Z,40.93
2023-02-28T23:17:23.259Z,40.92
2023-02-28T23:20:09.430Z,40.96
2023-02-28T23:22:55.463Z,40.98
2023-02-28T23:25:41.765Z,40.87
2023-02-28T23:28:27.465Z,41.09
2023-02-28T23:31:12.838Z,41.07
2023-02-28T23:33:58.352Z,41.13
2023-02-28T23:36:46.057Z,41.00
2023-02-28T23:39:31.854Z,41.10
2023-02-28T23:42:17.208Z,41.16
2023-02-28T23:45:03.631Z,41.03
2023-02-28T23:47:48.933Z,41.14
2023-02-28T23:50:34.321Z,41.17
2023-02-28T23:53:19.531Z,40.94
2023-02-28T23:56:06.887Z,40.91
2023-02-28T23:58:54.790Z,40.83
